ADDS METAR Data INFO
IDs: Format: Raw Decoded Include TAF

Data at: 0100 UTC 24 Aug 2017

KMAF 240053Z 08008KT 10SM CLR 28/18 A3001 RMK AO2 SLP116 T02830178
KMAF 232353Z 08008KT 10SM CLR 30/18 A3001 RMK AO2 SLP114 T03000178 10306 20261 58013
KMAF 232253Z 09008KT 10SM FEW045 SCT055 31/18 A3003 RMK AO2 SLP120 T03060183
KMAF 232153Z 07006KT 10SM SCT040 BKN048 31/19 A3004 RMK AO2 SLP122 T03060189
KMAF 232053Z 10005KT 10SM SCT037 29/18 A3005 RMK AO2 SLP128 T02940183 58029
KMAF 231953Z 03005KT 10SM CLR 29/19 A3008 RMK AO2 SLP140 T02940189
KMAF 231853Z 11005KT 10SM SCT026 28/20 A3012 RMK AO2 SLP154 T02780200
KMAF 231753Z 06007KT 10SM FEW020 26/19 A3015 RMK AO2 SLP165 60003 T02610194 10267 20211 58007
KMAF 231653Z 10006KT 10SM FEW014 26/19 A3016 RMK AO2 SLP171 T02560194
KMAF 231553Z 08009KT 10SM FEW013 OVC070 24/19 A3017 RMK AO2 SLP176 T02390189
KMAF 231453Z 07008KT 10SM OVC075 22/19 A3017 RMK AO2 SLP170 60003 T02220189 51017
KMAF 231353Z 05009KT 10SM FEW009 BKN070 OVC100 21/19 A3015 RMK AO2 RAE09B20E39 SLP164 P0001 T02110189
KMAF 231312Z 03010KT 10SM SCT009 BKN075 OVC110 21/19 A3016 RMK AO2 RAE09 P0000 T02110189
KMAF 231253Z 01008KT 4SM -RA BR BKN070 OVC100 21/19 A3015 RMK AO2 RAB39 SLP161 P0002 T02110189
KMAF 231153Z 02009KT 10SM BKN075 21/19 A3012 RMK AO2 LTG DSNT E SLP149 70054 T02110189 10222 20211 55003 $
KMAF 231053Z 00000KT 10SM CLR 22/19 A3009 RMK AO2 LTG DSNT NE AND E SLP142 T02170194 $
KMAF 230953Z AUTO 00000KT 10SM CLR 22/19 A3010 RMK AO2 SLP143 T02220194 $
KMAF 230853Z AUTO 05005KT 10SM SCT075 22/19 A3012 RMK AO2 SLP149 T02220194 55011 $
KMAF 230753Z AUTO 15005KT 10SM SCT085 22/19 A3012 RMK AO2 SLP149 T02170194 $
KMAF 230653Z AUTO 13006KT 10SM CLR 22/19 A3013 RMK AO2 SLP155 T02170189 $
KMAF 230553Z AUTO 08007KT 10SM CLR 22/19 A3016 RMK AO2 LTG DSNT S SLP164 60054 T02220189 10339 20211 403670211 50012 $
KMAF 230500Z AUTO 08007KT 10SM BKN080 22/19 A3016 RMK AO2 LTG DSNT S AND SW T02220194 $
KMAF 230453Z 07006KT 10SM VCTS BKN090 22/19 A3016 RMK AO2 LTG DSNT S-W TSE0354 SLP165 T02220194 $
KMAF 230445Z 07013G21KT 10SM VCTS SCT100 22/19 A3015 RMK AO2 LTG DSNT SE-W TSE0354 T02220194 $
KMAF 230421Z 08011G19KT 10SM SCT100 22/19 A3017 RMK AO2 LTG DSNT ALQDS TSE0354 T02220194 $
KMAF 230400Z 08012KT 10SM VCTS FEW043 BKN110 22/20 A3016 RMK AO2 LTG DSNT ALQDS TSE0354 T02170200 $
KMAF 230353Z 08013KT 10SM TS SCT039 OVC110 22/20 A3016 RMK AO2 PK WND 01052/0259 WSHFT 0251 LTG DSNT ALQDS RAB0254RAEMMB21E48 TSB0257 SLP168 P0054 T02170200 $
KMAF 230334Z 06013KT 3SM TSRA BR 21/19 A3018 RMK AO2 PK WND 01052/0259 WSHFT 0251 LTG DSNT ALQDS RAB0254RAEMMB21 TSB0257 P0053 T02110194 $
KMAF 230328Z 05015KT 1 1/4SM +TSRA BR 21/19 A3018 RMK AO2 PK WND 01052/0259 WSHFT 0251 LTG DSNT ALQDS RAB0254RAEMMB21 TSB0257 P0047 T02110194 $
KMAF 230317Z TS 22/19 A3017 RMK AO2 PK WND 01052/0259 WSHFT 0251 LTG DSNT ALQDS RAB0254RAEMM TSB0257 PRESRR P0017 T02170194 $
KMAF 230305Z 01032G52KT 1SM +TSRA BR FEW043 BKN065 OVC100 22/19 A3013 RMK AO2 PK WND 01052/0259 WSHFT 0251 LTG DSNT ALQDS RAB0254 TSB0257 PRESRR P0007 T02170194
KMAF 230300Z 36046G52KT 2SM TSRA FEW017 BKN085 OVC110 23/19 A3010 RMK AO2 PK WND 01052/0259 VIS 1V5 LTG DSNT ALQDS RAB0254 TSB0257 P0001 T02280194
KMAF 230253Z 01024G34KT 330V040 8SM VCTS FEW070 OVC085 29/16 A3012 RMK AO2 PK WND 04034/0253 LTG DSNT ALQDS PRESRR SLP149 T02890161 53024
KMAF 230248Z 11007KT 10SM VCTS BKN090 BKN110 31/15 A3007 RMK AO2 LTG DSNT ALQDS
KMAF 230153Z 14009KT 10SM FEW095 31/15 A3006 RMK AO2 LTG DSNT NE SLP126 T03110150
KMAF 230053Z 15009KT 10SM CLR 33/15 A3004 RMK AO2 LTG DSNT NE SLP122 T03280150
KMAF 222353Z 00000KT 10SM CLR 33/16 A3003 RMK AO2 SLP118 T03330156 10367 20311 56014
KMAF 222253Z 29012KT 10SM FEW049 BKN075 31/17 A3005 RMK AO2 SLP124 T03110167
KMAF 222217Z 18006KT 10SM FEW070 SCT090 34/14 A3005 RMK AO2 LTG DSNT SW AND W T03390144
KMAF 222202Z 16009KT 10SM VCTS BKN070 BKN090 34/15 A3006 RMK AO2 LTG DSNT SW-NW T03390150
KMAF 222153Z 12005KT 10SM BKN070 OVC100 34/14 A3005 RMK AO2 LTG DSNT SW-NW SLP123 T03390144
KMAF 222119Z 06007KT 10SM VCTS FEW075 SCT095 35/14 A3007 RMK AO2 LTG DSNT W AND NW T03500144
KMAF 222053Z 13009KT 10SM BKN070 BKN085 36/15 A3008 RMK AO2 LTG DSNT N AND NW SLP131 T03610150 58020
KMAF 221953Z 15011KT 10SM CLR 34/16 A3010 RMK AO2 LTG DSNT N AND NW SLP140 T03390156
KMAF 221900Z VRB04KT 10SM CLR 34/16 A3012 RMK AO2 T03390161
KMAF 221853Z 10SM CLR 34/16 A3013 RMK AO2 SLP150 T03390161
KMAF 221753Z 07006KT 10SM CLR 32/17 A3014 RMK AO2 SLP156 T03220167 10322 20228 50003
KMAF 221653Z 16007KT 10SM CLR 31/18 A3015 RMK AO2 SLP158 T03060178
KMAF 221553Z 19009KT 10SM CLR 29/18 A3014 RMK AO2 SLP156 T02890178
KMAF 221453Z 18010KT 10SM CLR 27/18 A3013 RMK AO2 SLP154 T02720178 53005
KMAF 221353Z 17009KT 10SM CLR 25/18 A3013 RMK AO2 SLP152 T02500178